createdAt,value
2022-08-30T00:01:22.414Z,16.50
2022-08-30T00:03:50.573Z,16.50
2022-08-30T00:06:19.738Z,16.50
2022-08-30T00:08:50.039Z,16.50
2022-08-30T00:11:19.269Z,16.50
2022-08-30T00:13:47.445Z,16.50
2022-08-30T00:16:15.611Z,16.50
2022-08-30T00:18:43.749Z,16.60
2022-08-30T00:21:11.699Z,16.60
2022-08-30T00:23:39.754Z,16.60
2022-08-30T00:26:09.354Z,16.50
2022-08-30T00:28:37.657Z,16.50
2022-08-30T00:31:05.967Z,16.40
2022-08-30T00:33:33.999Z,16.40
2022-08-30T00:36:01.858Z,16.30
2022-08-30T00:38:29.911Z,16.30
2022-08-30T00:40:59.705Z,16.30
2022-08-30T00:43:30.580Z,16.20
2022-08-30T00:45:58.686Z,16.20
2022-08-30T00:48:26.745Z,16.10
2022-08-30T00:50:56.654Z,16.10
2022-08-30T00:53:26.572Z,16.10
2022-08-30T00:55:55.056Z,16.10
2022-08-30T00:58:26.079Z,16.10
2022-08-30T01:00:56.708Z,16.00
2022-08-30T01:03:25.018Z,15.90
2022-08-30T01:05:54.076Z,15.90
2022-08-30T01:08:22.435Z,15.90
2022-08-30T01:10:51.090Z,15.80
2022-08-30T01:13:19.080Z,15.70
2022-08-30T01:15:47.162Z,15.70
2022-08-30T01:18:17.417Z,15.60
2022-08-30T01:20:49.466Z,15.60
2022-08-30T01:23:20.960Z,15.50
2022-08-30T01:25:50.524Z,15.50
2022-08-30T01:28:20.982Z,15.40
2022-08-30T01:30:49.246Z,15.40
2022-08-30T01:33:18.780Z,15.40
2022-08-30T01:35:49.413Z,15.40
2022-08-30T01:38:19.366Z,15.40
2022-08-30T01:40:47.410Z,15.40
2022-08-30T01:43:15.815Z,15.40
2022-08-30T01:45:44.366Z,15.30
2022-08-30T01:48:13.278Z,15.20
2022-08-30T01:50:41.954Z,15.10
2022-08-30T01:53:13.147Z,15.20
2022-08-30T01:55:42.986Z,15.20
2022-08-30T01:58:11.161Z,15.20
2022-08-30T02:00:39.217Z,15.20
2022-08-30T02:03:07.230Z,15.10
2022-08-30T02:05:35.055Z,15.00
2022-08-30T02:08:03.500Z,15.00
2022-08-30T02:10:31.626Z,15.00
2022-08-30T02:13:03.043Z,14.90
2022-08-30T02:15:31.249Z,14.90
2022-08-30T02:18:10.591Z,14.90
2022-08-30T02:20:39.075Z,14.80
2022-08-30T02:23:07.128Z,14.80
2022-08-30T02:25:35.048Z,14.70
2022-08-30T02:28:05.057Z,14.80
2022-08-30T02:30:34.478Z,14.80
2022-08-30T02:33:02.395Z,14.80
2022-08-30T02:35:30.310Z,14.80
2022-08-30T02:37:58.155Z,14.80
2022-08-30T02:40:26.147Z,14.70
2022-08-30T02:42:54.090Z,14.60
2022-08-30T02:45:23.433Z,14.60
2022-08-30T02:47:51.898Z,14.60
2022-08-30T02:50:19.839Z,14.50
2022-08-30T02:52:48.269Z,14.40
2022-08-30T02:55:16.396Z,14.40
2022-08-30T02:57:44.655Z,14.50
2022-08-30T03:00:14.048Z,14.50
2022-08-30T03:02:43.683Z,14.50
2022-08-30T03:05:13.967Z,14.50
2022-08-30T03:07:42.549Z,14.40
2022-08-30T03:10:10.946Z,14.30
2022-08-30T03:12:38.893Z,14.30
2022-08-30T03:15:07.538Z,14.30
2022-08-30T03:17:35.708Z,14.30
2022-08-30T03:20:05.818Z,14.30
2022-08-30T03:22:33.697Z,14.30
2022-08-30T03:25:01.752Z,14.30
2022-08-30T03:27:30.133Z,14.30
2022-08-30T03:29:58.310Z,14.30
2022-08-30T03:32:26.207Z,14.20
2022-08-30T03:34:54.333Z,14.30
2022-08-30T03:37:27.347Z,14.20
2022-08-30T03:39:55.642Z,14.20
2022-08-30T03:42:24.202Z,14.30
2022-08-30T03:44:52.655Z,14.30
2022-08-30T03:47:20.883Z,14.30
2022-08-30T03:49:48.767Z,14.30
2022-08-30T03:52:16.648Z,14.40
2022-08-30T03:54:47.834Z,14.40
2022-08-30T03:57:19.870Z,14.50
2022-08-30T03:59:48.152Z,14.60
2022-08-30T04:02:16.140Z,14.60
2022-08-30T04:04:44.267Z,14.60
2022-08-30T04:07:12.288Z,14.70
2022-08-30T04:09:40.725Z,14.70
2022-08-30T04:12:10.163Z,14.70
2022-08-30T04:14:38.020Z,14.70
2022-08-30T04:17:05.926Z,14.70
2022-08-30T04:19:33.823Z,14.70
2022-08-30T04:22:01.958Z,14.80
2022-08-30T04:24:29.851Z,14.80
2022-08-30T04:26:57.912Z,14.80
2022-08-30T04:29:27.156Z,14.80
2022-08-30T04:31:55.159Z,14.80
2022-08-30T04:34:23.117Z,14.70
2022-08-30T04:36:50.997Z,14.70
2022-08-30T04:39:18.954Z,14.70
2022-08-30T04:41:47.127Z,14.60
2022-08-30T04:44:19.365Z,14.60
2022-08-30T04:46:49.058Z,14.60
2022-08-30T04:49:16.920Z,14.60
2022-08-30T04:51:44.783Z,14.60
2022-08-30T04:54:12.887Z,14.70
2022-08-30T04:56:40.831Z,14.80
2022-08-30T04:59:08.710Z,14.90
2022-08-30T05:01:44.598Z,15.10
2022-08-30T05:04:15.742Z,15.20
2022-08-30T05:06:43.884Z,15.50
2022-08-30T05:09:11.924Z,15.80
2022-08-30T05:11:39.843Z,16.10
2022-08-30T05:14:07.772Z,16.40
2022-08-30T05:16:36.033Z,16.60
2022-08-30T05:19:04.029Z,16.90
2022-08-30T05:21:33.259Z,17.40
2022-08-30T05:24:01.862Z,17.90
2022-08-30T05:26:30.952Z,18.10
2022-08-30T05:28:59.496Z,17.80
2022-08-30T05:31:28.330Z,17.50
2022-08-30T05:33:56.744Z,17.20
2022-08-30T05:36:26.257Z,17.10
2022-08-30T05:38:55.967Z,17.40
2022-08-30T05:41:26.392Z,18.10
2022-08-30T05:43:55.220Z,18.90
2022-08-30T05:46:23.288Z,19.50
2022-08-30T05:48:51.675Z,19.80
2022-08-30T05:51:21.398Z,20.40
2022-08-30T05:53:50.371Z,21.00
2022-08-30T05:56:24.838Z,21.30
2022-08-30T05:58:54.199Z,21.50
2022-08-30T06:01:22.884Z,21.80
2022-08-30T06:03:50.916Z,22.20
2022-08-30T06:06:18.863Z,22.30
2022-08-30T06:08:48.937Z,22.40
2022-08-30T06:11:17.207Z,22.40
2022-08-30T06:13:47.161Z,22.50
2022-08-30T06:16:15.963Z,22.70
2022-08-30T06:18:43.983Z,23.00
2022-08-30T06:21:16.319Z,23.50
2022-08-30T06:23:44.758Z,24.00
2022-08-30T06:26:12.716Z,24.50
2022-08-30T06:28:40.655Z,24.70
2022-08-30T06:31:10.362Z,24.90
2022-08-30T06:33:38.778Z,25.00
2022-08-30T06:36:07.311Z,25.20
2022-08-30T06:38:35.504Z,25.60
2022-08-30T06:41:06.108Z,25.70
2022-08-30T06:43:34.160Z,25.50
2022-08-30T06:46:02.837Z,26.10
2022-08-30T06:48:32.083Z,26.40
2022-08-30T06:51:00.242Z,26.20
2022-08-30T06:53:29.628Z,26.10
2022-08-30T06:55:59.580Z,26.30
2022-08-30T06:58:27.830Z,26.90
2022-08-30T07:00:55.687Z,27.20
2022-08-30T07:03:25.501Z,27.60
2022-08-30T07:05:55.073Z,28.00
2022-08-30T07:08:23.630Z,28.40
2022-08-30T07:10:51.664Z,28.90
2022-08-30T07:13:21.008Z,29.00
2022-08-30T07:15:48.918Z,29.00
2022-08-30T07:18:34.494Z,28.90
2022-08-30T07:21:08.748Z,29.30
2022-08-30T07:23:37.172Z,29.40
2022-08-30T07:26:06.090Z,29.50
2022-08-30T07:28:34.541Z,29.40
2022-08-30T07:31:02.542Z,29.30
2022-08-30T07:33:30.421Z,29.60
2022-08-30T07:35:58.854Z,30.00
2022-08-30T07:38:30.818Z,30.30
2022-08-30T07:40:59.192Z,30.40
2022-08-30T07:43:27.354Z,30.60
2022-08-30T07:45:56.029Z,30.90
2022-08-30T07:48:23.960Z,31.30
2022-08-30T07:50:57.068Z,31.90
2022-08-30T07:53:26.570Z,32.00
2022-08-30T07:55:55.861Z,31.80
2022-08-30T07:58:23.801Z,31.20
2022-08-30T08:00:52.242Z,31.60
2022-08-30T08:03:20.275Z,31.70
2022-08-30T08:05:48.240Z,31.00
2022-08-30T08:08:16.571Z,31.20
2022-08-30T08:10:44.666Z,31.80
2022-08-30T08:13:14.875Z,32.70
2022-08-30T08:15:42.828Z,33.60
2022-08-30T08:18:10.830Z,33.90
2022-08-30T08:20:39.016Z,33.90
2022-08-30T08:23:07.120Z,34.20
2022-08-30T08:25:38.856Z,34.60
2022-08-30T08:28:06.826Z,34.90
2022-08-30T08:30:37.211Z,34.70
2022-08-30T08:33:06.223Z,35.90
2022-08-30T08:35:34.511Z,35.90
2022-08-30T08:38:02.486Z,34.60
2022-08-30T08:40:31.400Z,34.10
2022-08-30T08:43:02.723Z,34.60
2022-08-30T08:45:41.116Z,35.20
2022-08-30T08:48:11.651Z,35.20
2022-08-30T08:51:02.748Z,35.10
2022-08-30T08:53:51.755Z,34.90
2022-08-30T08:56:21.754Z,35.00
2022-08-30T08:58:50.674Z,34.60
2022-08-30T09:01:21.853Z,34.60
2022-08-30T09:03:49.956Z,34.50
2022-08-30T09:06:24.534Z,34.70
2022-08-30T09:08:53.167Z,34.30
2022-08-30T09:11:26.249Z,34.80
2022-08-30T09:13:55.588Z,35.10
2022-08-30T09:16:39.656Z,35.80
2022-08-30T09:19:09.189Z,36.20
2022-08-30T09:21:37.376Z,37.10
2022-08-30T09:24:08.673Z,37.60
2022-08-30T09:26:37.493Z,38.20
2022-08-30T09:29:06.064Z,37.90
2022-08-30T09:31:35.256Z,37.90
2022-08-30T09:34:05.237Z,38.10
2022-08-30T09:36:36.533Z,38.10
2022-08-30T09:39:06.093Z,37.80
2022-08-30T09:41:38.263Z,38.00
2022-08-30T09:44:08.288Z,37.80
2022-08-30T09:46:43.595Z,37.20
2022-08-30T09:49:28.384Z,37.30
2022-08-30T09:52:01.563Z,38.20
2022-08-30T09:54:34.638Z,39.60
2022-08-30T09:57:11.828Z,40.50
2022-08-30T10:00:01.370Z,40.60
2022-08-30T10:02:42.323Z,39.80
2022-08-30T10:05:13.896Z,38.90
2022-08-30T10:07:47.539Z,38.70
2022-08-30T10:10:19.237Z,39.10
2022-08-30T10:12:54.582Z,39.80
2022-08-30T10:15:24.538Z,40.40
2022-08-30T10:17:54.989Z,40.10
2022-08-30T10:20:26.876Z,39.40
2022-08-30T10:25:50.358Z,40.40
2022-08-30T10:28:21.577Z,41.50
2022-08-30T10:30:54.077Z,42.40
2022-08-30T10:33:25.548Z,42.80
2022-08-30T10:35:56.294Z,42.40
2022-08-30T10:38:27.920Z,41.70
2022-08-30T10:41:15.487Z,41.90
2022-08-30T10:43:50.845Z,41.80
2022-08-30T10:46:23.843Z,41.00
2022-08-30T10:48:52.917Z,40.30
2022-08-30T10:51:24.147Z,39.70
2022-08-30T10:53:56.404Z,40.00
2022-08-30T10:56:26.223Z,40.50
2022-08-30T10:58:54.475Z,40.70
2022-08-30T11:01:36.183Z,41.20
2022-08-30T11:04:25.180Z,40.50
2022-08-30T11:06:58.385Z,40.30
2022-08-30T11:09:33.943Z,41.60
2022-08-30T11:12:34.199Z,42.50
2022-08-30T11:15:12.566Z,43.90
2022-08-30T11:17:46.901Z,45.20
2022-08-30T11:20:24.134Z,45.80
2022-08-30T11:23:06.907Z,45.50
2022-08-30T11:25:57.697Z,46.00
2022-08-30T11:28:45.022Z,46.80
2022-08-30T11:31:15.837Z,47.00
2022-08-30T11:33:46.402Z,46.80
2022-08-30T11:36:38.784Z,46.20
2022-08-30T11:39:34.201Z,44.70
2022-08-30T11:42:14.107Z,43.20
2022-08-30T11:44:42.085Z,44.00
2022-08-30T11:47:25.240Z,44.70
2022-08-30T11:49:58.687Z,43.30
2022-08-30T11:52:39.235Z,41.80
2022-08-30T11:55:19.165Z,40.50
2022-08-30T11:57:50.510Z,40.40
2022-08-30T12:00:28.652Z,40.80
2022-08-30T12:02:59.316Z,40.50
2022-08-30T12:05:48.024Z,41.10
2022-08-30T12:08:33.347Z,42.60
2022-08-30T12:11:02.604Z,43.40
2022-08-30T12:13:49.304Z,43.10
2022-08-30T12:16:21.769Z,42.70
2022-08-30T12:18:50.621Z,42.50
2022-08-30T12:21:28.186Z,42.30
2022-08-30T12:23:59.876Z,42.80
2022-08-30T12:26:36.235Z,43.20
2022-08-30T12:29:13.582Z,43.00
2022-08-30T12:31:44.427Z,42.60
2022-08-30T12:34:18.569Z,42.80
2022-08-30T12:36:50.892Z,42.70
2022-08-30T12:39:21.261Z,42.40
2022-08-30T12:41:49.256Z,42.60
2022-08-30T12:44:19.715Z,42.70
2022-08-30T12:46:50.569Z,42.10
2022-08-30T12:49:19.587Z,42.80
2022-08-30T12:51:47.506Z,43.70
2022-08-30T12:54:17.941Z,43.80
2022-08-30T12:56:50.039Z,43.20
2022-08-30T12:59:33.228Z,42.60
2022-08-30T13:02:08.924Z,41.80
2022-08-30T13:04:49.096Z,41.20
2022-08-30T13:07:28.139Z,40.60
2022-08-30T13:10:05.365Z,40.50
2022-08-30T13:12:36.037Z,40.60
2022-08-30T13:15:10.694Z,40.60
2022-08-30T13:17:40.034Z,40.70
2022-08-30T13:20:20.979Z,41.20
2022-08-30T13:23:02.180Z,41.50
2022-08-30T13:25:32.899Z,41.80
2022-08-30T13:28:01.577Z,42.20
2022-08-30T13:30:29.739Z,43.00
2022-08-30T13:33:01.126Z,43.30
2022-08-30T13:35:30.818Z,43.40
2022-08-30T13:38:00.812Z,43.70
2022-08-30T13:40:28.932Z,43.50
2022-08-30T13:42:58.753Z,43.30
2022-08-30T13:45:42.571Z,43.20
2022-08-30T13:48:12.749Z,43.60
2022-08-30T13:50:40.768Z,44.40
2022-08-30T13:53:09.140Z,45.10
2022-08-30T13:55:37.650Z,45.30
2022-08-30T13:58:05.799Z,44.40
2022-08-30T14:00:37.742Z,43.50
2022-08-30T14:03:06.007Z,43.20
2022-08-30T14:06:09.999Z,43.50
2022-08-30T14:11:18.518Z,43.40
2022-08-30T14:16:36.042Z,43.00
2022-08-30T14:19:04.411Z,42.90
2022-08-30T14:21:35.070Z,41.70
2022-08-30T14:24:04.833Z,39.90
2022-08-30T14:26:36.385Z,38.80
2022-08-30T14:29:06.017Z,39.20
2022-08-30T14:31:37.037Z,39.50
2022-08-30T14:34:05.508Z,40.10
2022-08-30T14:36:33.505Z,40.20
2022-08-30T14:39:02.944Z,40.10
2022-08-30T14:41:38.986Z,39.60
2022-08-30T14:44:11.085Z,39.40
2022-08-30T14:46:39.048Z,39.70
2022-08-30T14:49:11.040Z,40.20
2022-08-30T14:51:39.412Z,40.60
2022-08-30T14:54:09.424Z,40.70
2022-08-30T14:56:38.732Z,40.50
2022-08-30T14:59:06.965Z,40.10
2022-08-30T15:01:37.279Z,39.70
2022-08-30T15:04:06.189Z,39.10
2022-08-30T15:06:35.955Z,38.70
2022-08-30T15:09:04.804Z,38.40
2022-08-30T15:11:34.351Z,38.40
2022-08-30T15:14:02.746Z,38.40
2022-08-30T15:16:32.153Z,38.60
2022-08-30T15:19:00.689Z,38.40
2022-08-30T15:21:30.613Z,38.20
2022-08-30T15:23:59.104Z,38.40
2022-08-30T15:26:29.109Z,38.60
2022-08-30T15:28:58.578Z,38.10
2022-08-30T15:31:28.557Z,38.00
2022-08-30T15:33:56.748Z,37.60
2022-08-30T15:36:25.179Z,37.50
2022-08-30T15:38:55.309Z,37.30
2022-08-30T15:41:23.728Z,37.20
2022-08-30T15:43:52.818Z,36.50
2022-08-30T15:46:23.569Z,36.00
2022-08-30T15:49:00.323Z,35.60
2022-08-30T15:51:28.419Z,35.20
2022-08-30T15:53:58.774Z,34.70
2022-08-30T15:56:27.347Z,34.30
2022-08-30T15:58:55.600Z,33.70
2022-08-30T16:01:30.174Z,33.20
2022-08-30T16:03:59.226Z,33.30
2022-08-30T16:06:29.305Z,33.50
2022-08-30T16:08:58.077Z,33.90
2022-08-30T16:11:26.501Z,34.30
2022-08-30T16:13:56.158Z,34.30
2022-08-30T16:16:26.325Z,34.20
2022-08-30T16:18:55.522Z,34.20
2022-08-30T16:21:24.547Z,34.50
2022-08-30T16:23:55.126Z,34.60
2022-08-30T16:26:23.576Z,34.60
2022-08-30T16:28:51.987Z,34.10
2022-08-30T16:31:20.892Z,33.50
2022-08-30T16:33:52.607Z,33.00
2022-08-30T16:36:22.065Z,32.60
2022-08-30T16:38:53.451Z,32.20
2022-08-30T16:41:24.558Z,31.70
2022-08-30T16:43:53.799Z,31.30
2022-08-30T16:46:23.450Z,30.90
2022-08-30T16:48:57.347Z,30.80
2022-08-30T16:51:26.261Z,30.90
2022-08-30T16:53:55.136Z,31.10
2022-08-30T16:56:25.217Z,31.30
2022-08-30T16:59:01.086Z,31.30
2022-08-30T17:01:31.365Z,31.20
2022-08-30T17:04:01.285Z,31.30
2022-08-30T17:06:30.233Z,31.30
2022-08-30T17:08:58.432Z,31.30
2022-08-30T17:11:26.993Z,31.10
2022-08-30T17:13:55.442Z,31.00
2022-08-30T17:16:27.976Z,30.80
2022-08-30T17:18:59.572Z,30.50
2022-08-30T17:21:30.665Z,30.40
2022-08-30T17:24:02.322Z,30.10
2022-08-30T17:26:31.621Z,29.90
2022-08-30T17:28:59.973Z,29.70
2022-08-30T17:31:30.583Z,29.50
2022-08-30T17:34:03.442Z,29.30
2022-08-30T17:36:35.593Z,29.00
2022-08-30T17:39:11.159Z,28.80
2022-08-30T17:41:39.923Z,28.60
2022-08-30T17:44:11.571Z,28.40
2022-08-30T17:46:39.630Z,28.20
2022-08-30T17:49:10.567Z,28.00
2022-08-30T17:51:42.805Z,27.90
2022-08-30T17:54:12.019Z,27.70
2022-08-30T17:56:40.049Z,27.60
2022-08-30T17:59:09.154Z,27.40
2022-08-30T18:01:37.756Z,27.20
2022-08-30T18:04:06.498Z,27.10
2022-08-30T18:06:34.731Z,27.00
2022-08-30T18:09:04.639Z,26.90
2022-08-30T18:11:35.974Z,26.80
2022-08-30T18:14:04.031Z,26.70
2022-08-30T18:16:33.088Z,26.60
2022-08-30T18:19:03.598Z,26.40
2022-08-30T18:21:31.622Z,26.30
2022-08-30T18:23:59.854Z,26.20
2022-08-30T18:26:29.347Z,26.00
2022-08-30T18:28:57.474Z,25.90
2022-08-30T18:31:27.519Z,25.80
2022-08-30T18:33:58.872Z,25.80
2022-08-30T18:36:28.228Z,25.70
2022-08-30T18:38:56.158Z,25.60
2022-08-30T18:41:26.446Z,25.50
2022-08-30T18:44:17.213Z,25.50
2022-08-30T18:46:55.891Z,25.40
2022-08-30T18:49:25.101Z,25.30
2022-08-30T18:51:53.138Z,25.20
2022-08-30T18:54:21.226Z,25.10
2022-08-30T18:56:49.159Z,25.10
2022-08-30T18:59:18.824Z,25.00
2022-08-30T19:01:47.178Z,24.90
2022-08-30T19:04:29.503Z,24.80
2022-08-30T19:07:03.813Z,24.80
2022-08-30T19:09:31.797Z,24.70
2022-08-30T19:11:59.900Z,24.60
2022-08-30T19:14:29.329Z,24.50
2022-08-30T19:17:02.034Z,24.50
2022-08-30T19:19:32.785Z,24.40
2022-08-30T19:22:03.376Z,24.30
2022-08-30T19:24:31.400Z,24.20
2022-08-30T19:27:00.828Z,24.20
2022-08-30T19:29:30.389Z,24.10
2022-08-30T19:31:58.933Z,24.10
2022-08-30T19:34:27.938Z,24.00
2022-08-30T19:36:56.028Z,24.00
2022-08-30T19:39:24.427Z,23.90
2022-08-30T19:41:52.436Z,23.90
2022-08-30T19:44:20.455Z,23.80
2022-08-30T19:46:51.717Z,23.80
2022-08-30T19:49:19.810Z,23.80
2022-08-30T19:51:50.005Z,23.70
2022-08-30T19:54:18.547Z,23.70
2022-08-30T19:56:46.995Z,23.70
2022-08-30T19:59:16.270Z,23.60
2022-08-30T20:01:45.780Z,23.60
2022-08-30T20:04:16.011Z,23.60
2022-08-30T20:06:46.198Z,23.50
2022-08-30T20:09:14.538Z,23.50
2022-08-30T20:11:43.192Z,23.40
2022-08-30T20:14:13.621Z,23.40
2022-08-30T20:16:42.399Z,23.40
2022-08-30T20:19:17.070Z,23.30
2022-08-30T20:21:47.099Z,23.20
2022-08-30T20:24:18.293Z,23.20
2022-08-30T20:26:46.817Z,23.10
2022-08-30T20:29:15.383Z,23.10
2022-08-30T20:31:43.954Z,23.10
2022-08-30T20:34:12.806Z,23.00
2022-08-30T20:36:42.486Z,23.00
2022-08-30T20:39:10.418Z,23.00
2022-08-30T20:41:45.295Z,23.00
2022-08-30T20:44:14.556Z,22.90
2022-08-30T20:46:43.791Z,22.90
2022-08-30T20:49:12.220Z,22.90
2022-08-30T20:51:40.514Z,22.90
2022-08-30T20:54:10.302Z,22.80
2022-08-30T20:56:38.494Z,22.70
2022-08-30T20:59:06.889Z,22.70
2022-08-30T21:01:38.270Z,22.60
2022-08-30T21:04:07.133Z,22.60
2022-08-30T21:06:37.588Z,22.50
2022-08-30T21:09:06.482Z,22.40
2022-08-30T21:11:36.881Z,22.40
2022-08-30T21:14:05.292Z,22.30
2022-08-30T21:16:33.233Z,22.30
2022-08-30T21:19:01.539Z,22.30
2022-08-30T21:21:30.508Z,22.20
2022-08-30T21:24:00.285Z,22.20
2022-08-30T21:26:28.819Z,22.20
2022-08-30T21:28:58.224Z,22.20
2022-08-30T21:31:27.640Z,22.10
2022-08-30T21:33:55.917Z,22.10
2022-08-30T21:36:42.385Z,22.00
2022-08-30T21:39:10.630Z,22.00
2022-08-30T21:41:38.555Z,22.00
2022-08-30T21:44:08.760Z,22.00
2022-08-30T21:46:37.050Z,21.90
2022-08-30T21:49:06.665Z,21.90
2022-08-30T21:51:36.723Z,21.90
2022-08-30T21:54:07.229Z,21.80
2022-08-30T21:56:35.600Z,21.80
2022-08-30T21:59:03.985Z,21.80
2022-08-30T22:01:33.489Z,21.70
2022-08-30T22:04:04.084Z,21.70
2022-08-30T22:06:33.122Z,21.60
2022-08-30T22:09:02.615Z,21.60
2022-08-30T22:11:31.521Z,21.60
2022-08-30T22:13:59.471Z,21.50
2022-08-30T22:16:29.223Z,21.50
2022-08-30T22:18:58.577Z,21.40
2022-08-30T22:21:27.800Z,21.40
2022-08-30T22:23:56.350Z,21.40
2022-08-30T22:26:24.978Z,21.30
2022-08-30T22:28:52.858Z,21.30
2022-08-30T22:31:21.562Z,21.20
2022-08-30T22:33:49.307Z,21.20
2022-08-30T22:36:19.623Z,21.20
2022-08-30T22:38:48.520Z,21.10
2022-08-30T22:41:17.456Z,21.10
2022-08-30T22:43:45.476Z,21.10
2022-08-30T22:46:13.545Z,21.10
2022-08-30T22:48:42.993Z,21.10
2022-08-30T22:51:11.914Z,21.10
2022-08-30T22:53:43.192Z,21.10
2022-08-30T22:56:12.235Z,21.10
2022-08-30T22:58:40.237Z,21.10
2022-08-30T23:01:08.567Z,21.10
2022-08-30T23:03:37.185Z,21.10
2022-08-30T23:06:05.252Z,21.10
2022-08-30T23:08:33.199Z,21.10
2022-08-30T23:11:02.494Z,21.10
2022-08-30T23:13:30.412Z,21.10
2022-08-30T23:15:58.304Z,21.10
2022-08-30T23:18:26.187Z,21.10
2022-08-30T23:20:54.073Z,21.10
2022-08-30T23:23:39.291Z,21.00
2022-08-30T23:26:25.907Z,21.00
2022-08-30T23:29:11.253Z,21.00
2022-08-30T23:31:56.577Z,20.90
2022-08-30T23:34:42.315Z,20.90
2022-08-30T23:37:27.793Z,20.90
2022-08-30T23:40:13.350Z,20.80
2022-08-30T23:43:00.301Z,20.80
2022-08-30T23:45:45.892Z,20.80
2022-08-30T23:48:31.443Z,20.80
2022-08-30T23:51:21.776Z,20.70
2022-08-30T23:54:07.223Z,20.70
2022-08-30T23:56:52.909Z,20.70
2022-08-30T23:59:39.543Z,20.70
